sensor_id;sensor_type;location;lat;lon;timestamp;pressure;altitude;pressure_sealevel;temperature;humidity
53300;BME280;39187;48.476;8.310;2022-12-15T00:01:06;89761.31;;;-1.43;100.00
53300;BME280;39187;48.476;8.310;2022-12-15T00:03:50;89765.38;;;-1.24;100.00
53300;BME280;39187;48.476;8.310;2022-12-15T00:06:33;89766.84;;;-1.19;100.00
53300;BME280;39187;48.476;8.310;2022-12-15T00:09:17;89770.56;;;-1.13;100.00
53300;BME280;39187;48.476;8.310;2022-12-15T00:12:01;89774.31;;;-1.32;100.00
53300;BME280;39187;48.476;8.310;2022-12-15T00:14:45;89775.78;;;-1.10;100.00
53300;BME280;39187;48.476;8.310;2022-12-15T00:17:29;89779.88;;;-1.12;100.00
53300;BME280;39187;48.476;8.310;2022-12-15T00:20:13;89786.63;;;-1.29;100.00
53300;BME280;39187;48.476;8.310;2022-12-15T00:23:05;89776.16;;;-1.11;100.00
53300;BME280;39187;48.476;8.310;2022-12-15T00:25:49;89773.91;;;-1.06;100.00
53300;BME280;39187;48.476;8.310;2022-12-15T00:28:33;89781.00;;;-1.13;100.00
53300;BME280;39187;48.476;8.310;2022-12-15T00:31:17;89789.22;;;-1.11;100.00
53300;BME280;39187;48.476;8.310;2022-12-15T00:34:01;89796.66;;;-1.06;100.00
53300;BME280;39187;48.476;8.310;2022-12-15T00:36:45;89791.06;;;-1.08;100.00
53300;BME280;39187;48.476;8.310;2022-12-15T00:39:29;89788.84;;;-1.03;100.00
53300;BME280;39187;48.476;8.310;2022-12-15T00:41:54;89793.28;;;-0.96;100.00
53300;BME280;39187;48.476;8.310;2022-12-15T00:44:20;89789.53;;;-0.95;100.00
53300;BME280;39187;48.476;8.310;2022-12-15T00:46:47;89799.25;;;-0.92;100.00
53300;BME280;39187;48.476;8.310;2022-12-15T00:49:22;89791.81;;;-1.15;100.00
53300;BME280;39187;48.476;8.310;2022-12-15T00:52:06;89796.28;;;-0.98;100.00
53300;BME280;39187;48.476;8.310;2022-12-15T00:54:50;89795.88;;;-0.93;100.00
53300;BME280;39187;48.476;8.310;2022-12-15T00:57:35;89802.22;;;-0.90;100.00
53300;BME280;39187;48.476;8.310;2022-12-15T01:00:19;89791.78;;;-0.90;100.00
53300;BME280;39187;48.476;8.310;2022-12-15T01:03:30;89792.22;;;-1.34;100.00
53300;BME280;39187;48.476;8.310;2022-12-15T01:06:16;89797.09;;;-1.36;100.00
53300;BME280;39187;48.476;8.310;2022-12-15T01:09:02;89811.25;;;-1.51;100.00
53300;BME280;39187;48.476;8.310;2022-12-15T01:11:47;89814.97;;;-1.49;100.00
53300;BME280;39187;48.476;8.310;2022-12-15T01:14:31;89817.56;;;-1.45;100.00
53300;BME280;39187;48.476;8.310;2022-12-15T01:17:16;89814.22;;;-1.60;100.00
53300;BME280;39187;48.476;8.310;2022-12-15T01:20:00;89806.03;;;-1.55;100.00
53300;BME280;39187;48.476;8.310;2022-12-15T01:22:58;89810.47;;;-1.34;100.00
53300;BME280;39187;48.476;8.310;2022-12-15T01:25:24;89813.09;;;-1.38;100.00
53300;BME280;39187;48.476;8.310;2022-12-15T01:27:50;89820.94;;;-1.38;100.00
53300;BME280;39187;48.476;8.310;2022-12-15T01:30:19;89825.41;;;-1.35;100.00
53300;BME280;39187;48.476;8.310;2022-12-15T01:32:46;89816.81;;;-1.21;100.00
53300;BME280;39187;48.476;8.310;2022-12-15T01:35:12;89819.81;;;-1.26;100.00
53300;BME280;39187;48.476;8.310;2022-12-15T01:37:37;89823.53;;;-1.38;100.00
53300;BME280;39187;48.476;8.310;2022-12-15T01:40:04;89820.19;;;-1.31;100.00
53300;BME280;39187;48.476;8.310;2022-12-15T01:42:48;89812.72;;;-1.26;100.00
53300;BME280;39187;48.476;8.310;2022-12-15T01:45:59;89820.94;;;-1.45;100.00
53300;BME280;39187;48.476;8.310;2022-12-15T01:48:33;89817.97;;;-1.50;100.00
53300;BME280;39187;48.476;8.310;2022-12-15T01:51:05;89816.84;;;-1.67;100.00
53300;BME280;39187;48.476;8.310;2022-12-15T01:53:41;89819.06;;;-1.41;100.00
53300;BME280;39187;48.476;8.310;2022-12-15T01:56:08;89820.56;;;-1.33;100.00
53300;BME280;39187;48.476;8.310;2022-12-15T01:58:35;89832.88;;;-1.44;100.00
53300;BME280;39187;48.476;8.310;2022-12-15T02:01:02;89825.78;;;-1.54;100.00
53300;BME280;39187;48.476;8.310;2022-12-15T02:03:28;89830.25;;;-1.30;100.00
53300;BME280;39187;48.476;8.310;2022-12-15T02:05:56;89828.00;;;-1.17;100.00
53300;BME280;39187;48.476;8.310;2022-12-15T02:08:24;89837.69;;;-1.14;100.00
53300;BME280;39187;48.476;8.310;2022-12-15T02:16:25;89834.72;;;-1.12;100.00
53300;BME280;39187;48.476;8.310;2022-12-15T02:19:50;89837.69;;;-1.10;100.00
53300;BME280;39187;48.476;8.310;2022-12-15T02:21:52;89844.41;;;-1.27;100.00
53300;BME280;39187;48.476;8.310;2022-12-15T02:30:53;89847.41;;;-1.39;100.00
53300;BME280;39187;48.476;8.310;2022-12-15T02:33:50;89847.78;;;-1.30;100.00
53300;BME280;39187;48.476;8.310;2022-12-15T02:36:24;89841.44;;;-1.36;100.00
53300;BME280;39187;48.476;8.310;2022-12-15T02:38:52;89839.19;;;-1.20;100.00
53300;BME280;39187;48.476;8.310;2022-12-15T02:41:36;89841.78;;;-1.20;100.00
53300;BME280;39187;48.476;8.310;2022-12-15T02:44:11;89839.94;;;-1.12;100.00
53300;BME280;39187;48.476;8.310;2022-12-15T03:02:05;89852.63;;;-1.29;100.00
53300;BME280;39187;48.476;8.310;2022-12-15T03:04:32;89859.31;;;-1.45;100.00
53300;BME280;39187;48.476;8.310;2022-12-15T03:07:03;89854.47;;;-1.40;100.00
53300;BME280;39187;48.476;8.310;2022-12-15T03:09:30;89864.56;;;-1.31;100.00
53300;BME280;39187;48.476;8.310;2022-12-15T03:11:56;89863.41;;;-1.27;100.00
53300;BME280;39187;48.476;8.310;2022-12-15T03:14:21;89871.63;;;-1.14;100.00
53300;BME280;39187;48.476;8.310;2022-12-15T03:16:50;89874.59;;;-1.08;100.00
53300;BME280;39187;48.476;8.310;2022-12-15T03:19:16;89865.66;;;-1.04;100.00
53300;BME280;39187;48.476;8.310;2022-12-15T03:21:41;89863.78;;;-1.07;100.00
53300;BME280;39187;48.476;8.310;2022-12-15T03:24:07;89871.25;;;-1.05;100.00
53300;BME280;39187;48.476;8.310;2022-12-15T03:26:33;89867.88;;;-1.02;100.00
53300;BME280;39187;48.476;8.310;2022-12-15T03:28:58;89872.38;;;-1.06;100.00
53300;BME280;39187;48.476;8.310;2022-12-15T03:31:25;89871.63;;;-1.17;100.00
53300;BME280;39187;48.476;8.310;2022-12-15T03:33:50;89872.38;;;-1.45;100.00
53300;BME280;39187;48.476;8.310;2022-12-15T03:36:16;89872.38;;;-1.35;100.00
53300;BME280;39187;48.476;8.310;2022-12-15T03:38:41;89876.09;;;-1.32;100.00
53300;BME280;39187;48.476;8.310;2022-12-15T03:41:07;89882.44;;;-1.33;100.00
53300;BME280;39187;48.476;8.310;2022-12-15T03:43:32;89879.47;;;-1.35;100.00
53300;BME280;39187;48.476;8.310;2022-12-15T03:45:58;89873.09;;;-1.52;100.00
53300;BME280;39187;48.476;8.310;2022-12-15T03:48:23;89876.47;;;-1.41;100.00
53300;BME280;39187;48.476;8.310;2022-12-15T03:50:49;89873.88;;;-1.37;100.00
53300;BME280;39187;48.476;8.310;2022-12-15T03:53:15;89879.44;;;-1.67;100.00
53300;BME280;39187;48.476;8.310;2022-12-15T03:55:40;89882.03;;;-1.71;100.00
53300;BME280;39187;48.476;8.310;2022-12-15T03:58:06;89874.25;;;-1.42;100.00
53300;BME280;39187;48.476;8.310;2022-12-15T04:00:32;89876.47;;;-1.27;100.00
53300;BME280;39187;48.476;8.310;2022-12-15T04:02:57;89881.69;;;-1.55;100.00
53300;BME280;39187;48.476;8.310;2022-12-15T04:05:31;89883.19;;;-1.33;100.00
53300;BME280;39187;48.476;8.310;2022-12-15T04:07:58;89892.88;;;-1.40;100.00
53300;BME280;39187;48.476;8.310;2022-12-15T04:10:26;89892.13;;;-1.34;100.00
53300;BME280;39187;48.476;8.310;2022-12-15T04:12:59;89890.63;;;-1.21;100.00
53300;BME280;39187;48.476;8.310;2022-12-15T04:15:26;89894.72;;;-1.55;100.00
53300;BME280;39187;48.476;8.310;2022-12-15T04:17:52;89891.00;;;-1.26;100.00
53300;BME280;39187;48.476;8.310;2022-12-15T04:20:18;89901.09;;;-1.35;100.00
53300;BME280;39187;48.476;8.310;2022-12-15T04:22:47;89880.94;;;-1.55;100.00
53300;BME280;39187;48.476;8.310;2022-12-15T04:25:19;89882.06;;;-1.46;100.00
53300;BME280;39187;48.476;8.310;2022-12-15T04:28:04;89880.91;;;-1.66;100.00
53300;BME280;39187;48.476;8.310;2022-12-15T04:30:55;89884.31;;;-1.37;100.00
53300;BME280;39187;48.476;8.310;2022-12-15T04:33:41;89884.63;;;-1.71;100.00
53300;BME280;39187;48.476;8.310;2022-12-15T04:36:28;89893.63;;;-1.43;100.00
53300;BME280;39187;48.476;8.310;2022-12-15T04:39:12;89896.97;;;-1.46;100.00
53300;BME280;39187;48.476;8.310;2022-12-15T04:41:58;89882.78;;;-1.52;100.00
53300;BME280;39187;48.476;8.310;2022-12-15T04:44:43;89889.88;;;-1.46;100.00
53300;BME280;39187;48.476;8.310;2022-12-15T04:47:28;89884.66;;;-1.60;100.00
53300;BME280;39187;48.476;8.310;2022-12-15T04:50:12;89897.28;;;-1.73;100.00
53300;BME280;39187;48.476;8.310;2022-12-15T04:53:09;89888.31;;;-1.89;100.00
53300;BME280;39187;48.476;8.310;2022-12-15T04:55:53;89902.19;;;-1.50;100.00
53300;BME280;39187;48.476;8.310;2022-12-15T04:58:37;89899.94;;;-1.51;100.00
53300;BME280;39187;48.476;8.310;2022-12-15T05:01:21;89905.13;;;-1.73;100.00
53300;BME280;39187;48.476;8.310;2022-12-15T05:04:05;89905.16;;;-1.55;100.00
53300;BME280;39187;48.476;8.310;2022-12-15T05:06:48;89907.03;;;-1.45;100.00
53300;BME280;39187;48.476;8.310;2022-12-15T05:09:32;89909.63;;;-1.59;100.00
53300;BME280;39187;48.476;8.310;2022-12-15T05:12:16;89914.09;;;-1.56;100.00
53300;BME280;39187;48.476;8.310;2022-12-15T05:15:00;89908.13;;;-1.74;100.00
53300;BME280;39187;48.476;8.310;2022-12-15T05:17:44;89908.38;;;-2.04;100.00
53300;BME280;39187;48.476;8.310;2022-12-15T05:20:28;89912.97;;;-1.69;100.00
53300;BME280;39187;48.476;8.310;2022-12-15T05:23:12;89901.34;;;-1.96;100.00
53300;BME280;39187;48.476;8.310;2022-12-15T05:25:57;89901.38;;;-1.86;100.00
53300;BME280;39187;48.476;8.310;2022-12-15T05:28:42;89904.31;;;-1.98;100.00
53300;BME280;39187;48.476;8.310;2022-12-15T05:31:26;89902.16;;;-1.68;100.00
53300;BME280;39187;48.476;8.310;2022-12-15T05:34:10;89907.75;;;-1.62;100.00
53300;BME280;39187;48.476;8.310;2022-12-15T05:36:35;89902.53;;;-1.62;100.00
53300;BME280;39187;48.476;8.310;2022-12-15T05:39:01;89900.84;;;-2.34;100.00
53300;BME280;39187;48.476;8.310;2022-12-15T05:41:27;89902.75;;;-2.20;100.00
53300;BME280;39187;48.476;8.310;2022-12-15T05:43:52;89908.53;;;-2.59;100.00
53300;BME280;39187;48.476;8.310;2022-12-15T05:46:18;89904.44;;;-2.60;100.00
53300;BME280;39187;48.476;8.310;2022-12-15T05:48:44;89916.34;;;-2.59;100.00
53300;BME280;39187;48.476;8.310;2022-12-15T05:51:10;89921.66;;;-2.45;100.00
53300;BME280;39187;48.476;8.310;2022-12-15T05:53:37;89914.31;;;-2.11;100.00
53300;BME280;39187;48.476;8.310;2022-12-15T05:56:05;89918.44;;;-2.03;100.00
53300;BME280;39187;48.476;8.310;2022-12-15T05:58:31;89914.31;;;-2.14;100.00
53300;BME280;39187;48.476;8.310;2022-12-15T06:01:12;89912.84;;;-2.05;100.00
53300;BME280;39187;48.476;8.310;2022-12-15T06:03:39;89916.19;;;-2.15;100.00
53300;BME280;39187;48.476;8.310;2022-12-15T06:06:06;89913.25;;;-1.95;100.00
53300;BME280;39187;48.476;8.310;2022-12-15T06:08:34;89911.44;;;-1.84;100.00
53300;BME280;39187;48.476;8.310;2022-12-15T06:11:00;89908.13;;;-1.74;100.00
53300;BME280;39187;48.476;8.310;2022-12-15T06:13:29;89918.47;;;-1.99;100.00
53300;BME280;39187;48.476;8.310;2022-12-15T06:16:04;89914.78;;;-1.84;100.00
53300;BME280;39187;48.476;8.310;2022-12-15T06:18:32;89923.00;;;-1.78;100.00
53300;BME280;39187;48.476;8.310;2022-12-15T06:21:00;89920.28;;;-2.10;100.00
53300;BME280;39187;48.476;8.310;2022-12-15T06:23:30;89925.75;;;-2.40;100.00
53300;BME280;39187;48.476;8.310;2022-12-15T06:25:57;89923.97;;;-2.22;100.00
53300;BME280;39187;48.476;8.310;2022-12-15T06:28:23;89929.88;;;-2.32;100.00
53300;BME280;39187;48.476;8.310;2022-12-15T06:30:53;89937.91;;;-2.65;100.00
53300;BME280;39187;48.476;8.310;2022-12-15T06:33:20;89924.75;;;-2.11;100.00
53300;BME280;39187;48.476;8.310;2022-12-15T06:35:46;89919.44;;;-2.39;100.00
53300;BME280;39187;48.476;8.310;2022-12-15T06:38:11;89923.25;;;-2.15;100.00
53300;BME280;39187;48.476;8.310;2022-12-15T06:40:38;89919.47;;;-2.32;100.00
53300;BME280;39187;48.476;8.310;2022-12-15T06:43:05;89915.00;;;-2.28;100.00
53300;BME280;39187;48.476;8.310;2022-12-15T06:45:30;89918.38;;;-2.24;100.00
53300;BME280;39187;48.476;8.310;2022-12-15T06:47:56;89916.47;;;-2.34;100.00
53300;BME280;39187;48.476;8.310;2022-12-15T06:50:21;89916.13;;;-2.94;100.00
53300;BME280;39187;48.476;8.310;2022-12-15T06:52:47;89903.25;;;-2.76;100.00
53300;BME280;39187;48.476;8.310;2022-12-15T06:55:13;89914.97;;;-3.00;100.00
53300;BME280;39187;48.476;8.310;2022-12-15T06:57:38;89917.19;;;-3.06;100.00
53300;BME280;39187;48.476;8.310;2022-12-15T07:00:04;89914.72;;;-2.85;100.00
53300;BME280;39187;48.476;8.310;2022-12-15T07:02:30;89925.19;;;-2.74;100.00
53300;BME280;39187;48.476;8.310;2022-12-15T07:04:57;89932.59;;;-3.31;100.00
53300;BME280;39187;48.476;8.310;2022-12-15T07:07:24;89927.75;;;-3.36;100.00
53300;BME280;39187;48.476;8.310;2022-12-15T07:09:50;89925.94;;;-3.28;100.00
53300;BME280;39187;48.476;8.310;2022-12-15T07:12:15;89941.28;;;-3.16;100.00
53300;BME280;39187;48.476;8.310;2022-12-15T07:14:41;89947.44;;;-3.35;100.00
53300;BME280;39187;48.476;8.310;2022-12-15T07:17:06;89943.53;;;-3.55;100.00
53300;BME280;39187;48.476;8.310;2022-12-15T07:19:35;89947.47;;;-3.31;100.00
53300;BME280;39187;48.476;8.310;2022-12-15T07:22:01;89946.16;;;-3.55;100.00
53300;BME280;39187;48.476;8.310;2022-12-15T07:24:26;89958.28;;;-3.26;100.00
53300;BME280;39187;48.476;8.310;2022-12-15T07:26:52;89959.63;;;-2.98;100.00
53300;BME280;39187;48.476;8.310;2022-12-15T07:29:17;89958.91;;;-3.39;100.00
53300;BME280;39187;48.476;8.310;2022-12-15T07:31:43;89961.19;;;-3.34;100.00
53300;BME280;39187;48.476;8.310;2022-12-15T07:34:08;89971.28;;;-3.26;100.00
53300;BME280;39187;48.476;8.310;2022-12-15T07:36:34;89965.56;;;-3.01;100.00
53300;BME280;39187;48.476;8.310;2022-12-15T07:39:00;89974.19;;;-2.87;100.00
53300;BME280;39187;48.476;8.310;2022-12-15T07:41:26;89961.75;;;-3.51;100.00
53300;BME280;39187;48.476;8.310;2022-12-15T07:43:52;89973.66;;;-3.10;100.00
53300;BME280;39187;48.476;8.310;2022-12-15T07:46:18;89978.47;;;-3.12;100.00
53300;BME280;39187;48.476;8.310;2022-12-15T07:48:44;89975.28;;;-2.95;100.00
53300;BME280;39187;48.476;8.310;2022-12-15T07:51:10;89977.59;;;-2.83;100.00
53300;BME280;39187;48.476;8.310;2022-12-15T07:53:35;89980.19;;;-2.83;100.00
53300;BME280;39187;48.476;8.310;2022-12-15T07:56:02;89981.88;;;-3.04;100.00
53300;BME280;39187;48.476;8.310;2022-12-15T07:58:28;89996.47;;;-2.93;100.00
53300;BME280;39187;48.476;8.310;2022-12-15T08:01:01;89990.72;;;-3.12;100.00
53300;BME280;39187;48.476;8.310;2022-12-15T08:03:28;89996.44;;;-2.96;100.00
53300;BME280;39187;48.476;8.310;2022-12-15T08:05:54;89996.41;;;-3.00;100.00
53300;BME280;39187;48.476;8.310;2022-12-15T08:08:21;90002.06;;;-3.35;100.00
53300;BME280;39187;48.476;8.310;2022-12-15T08:10:47;89995.78;;;-3.30;100.00
53300;BME280;39187;48.476;8.310;2022-12-15T08:13:13;89987.22;;;-3.34;100.00
53300;BME280;39187;48.476;8.310;2022-12-15T08:15:40;89982.16;;;-3.16;100.00
53300;BME280;39187;48.476;8.310;2022-12-15T08:18:06;89986.72;;;-3.03;100.00
53300;BME280;39187;48.476;8.310;2022-12-15T08:20:34;90001.25;;;-3.42;100.00
53300;BME280;39187;48.476;8.310;2022-12-15T08:23:00;90005.78;;;-3.32;100.00
53300;BME280;39187;48.476;8.310;2022-12-15T08:25:26;90010.31;;;-3.26;100.00
53300;BME280;39187;48.476;8.310;2022-12-15T08:27:55;90012.75;;;-3.43;100.00
53300;BME280;39187;48.476;8.310;2022-12-15T08:30:21;90015.69;;;-3.48;100.00
53300;BME280;39187;48.476;8.310;2022-12-15T08:32:47;90010.06;;;-3.54;100.00
53300;BME280;39187;48.476;8.310;2022-12-15T08:35:13;90017.38;;;-3.26;100.00
53300;BME280;39187;48.476;8.310;2022-12-15T08:37:39;90005.13;;;-3.63;100.00
53300;BME280;39187;48.476;8.310;2022-12-15T08:40:05;90003.34;;;-3.55;100.00
53300;BME280;39187;48.476;8.310;2022-12-15T08:42:34;89995.44;;;-3.29;100.00
53300;BME280;39187;48.476;8.310;2022-12-15T08:45:01;90017.44;;;-3.19;100.00
53300;BME280;39187;48.476;8.310;2022-12-15T08:47:28;90011.03;;;-3.29;100.00
53300;BME280;39187;48.476;8.310;2022-12-15T08:49:54;90005.16;;;-3.18;100.00
53300;BME280;39187;48.476;8.310;2022-12-15T08:52:20;90016.75;;;-3.12;100.00
53300;BME280;39187;48.476;8.310;2022-12-15T08:54:46;90012.41;;;-3.38;100.00
53300;BME280;39187;48.476;8.310;2022-12-15T08:57:12;90015.09;;;-3.31;100.00
53300;BME280;39187;48.476;8.310;2022-12-15T08:59:37;90014.56;;;-3.47;100.00
53300;BME280;39187;48.476;8.310;2022-12-15T09:02:03;90019.13;;;-3.37;100.00
53300;BME280;39187;48.476;8.310;2022-12-15T09:04:28;90018.13;;;-3.26;100.00
53300;BME280;39187;48.476;8.310;2022-12-15T09:06:54;90015.94;;;-3.60;100.00
53300;BME280;39187;48.476;8.310;2022-12-15T09:09:20;90007.72;;;-3.26;100.00
53300;BME280;39187;48.476;8.310;2022-12-15T09:11:45;90013.47;;;-3.06;100.00
53300;BME280;39187;48.476;8.310;2022-12-15T09:14:11;90009.66;;;-3.15;100.00
53300;BME280;39187;48.476;8.310;2022-12-15T09:16:36;90007.63;;;-2.92;100.00
53300;BME280;39187;48.476;8.310;2022-12-15T09:19:02;90031.59;;;-3.13;100.00
53300;BME280;39187;48.476;8.310;2022-12-15T09:21:29;90030.13;;;-3.14;100.00
53300;BME280;39187;48.476;8.310;2022-12-15T09:23:57;90033.31;;;-3.31;100.00
53300;BME280;39187;48.476;8.310;2022-12-15T09:26:25;90040.72;;;-3.33;100.00
53300;BME280;39187;48.476;8.310;2022-12-15T09:28:52;90041.03;;;-3.38;100.00
53300;BME280;39187;48.476;8.310;2022-12-15T09:31:30;90041.78;;;-3.38;100.00
53300;BME280;39187;48.476;8.310;2022-12-15T09:33:58;90042.22;;;-2.92;100.00
53300;BME280;39187;48.476;8.310;2022-12-15T09:36:25;90031.81;;;-3.32;100.00
53300;BME280;39187;48.476;8.310;2022-12-15T09:38:51;90034.56;;;-3.55;100.00
53300;BME280;39187;48.476;8.310;2022-12-15T09:41:26;90032.47;;;-3.02;100.00
53300;BME280;39187;48.476;8.310;2022-12-15T09:44:22;90038.44;;;-2.98;100.00
53300;BME280;39187;48.476;8.310;2022-12-15T09:49:59;90031.19;;;-3.55;100.00
53300;BME280;39187;48.476;8.310;2022-12-15T09:52:42;90032.91;;;-3.70;100.00
53300;BME280;39187;48.476;8.310;2022-12-15T09:55:30;90021.97;;;-3.83;100.00
53300;BME280;39187;48.476;8.310;2022-12-15T10:01:00;90023.63;;;-3.34;100.00
53300;BME280;39187;48.476;8.310;2022-12-15T10:03:36;90015.28;;;-3.50;100.00
53300;BME280;39187;48.476;8.310;2022-12-15T10:06:18;90007.41;;;-3.20;100.00
53300;BME280;39187;48.476;8.310;2022-12-15T10:08:52;90010.00;;;-3.20;100.00
53300;BME280;39187;48.476;8.310;2022-12-15T10:17:06;90000.09;;;-3.04;100.00
53300;BME280;39187;48.476;8.310;2022-12-15T10:19:41;89997.56;;;-2.97;100.00
53300;BME280;39187;48.476;8.310;2022-12-15T10:22:12;89987.47;;;-3.02;100.00
53300;BME280;39187;48.476;8.310;2022-12-15T10:24:39;90001.19;;;-3.05;100.00
53300;BME280;39187;48.476;8.310;2022-12-15T10:27:37;90007.91;;;-3.01;100.00
53300;BME280;39187;48.476;8.310;2022-12-15T10:30:08;90009.34;;;-3.07;100.00
53300;BME280;39187;48.476;8.310;2022-12-15T10:32:49;90016.09;;;-3.02;100.00
53300;BME280;39187;48.476;8.310;2022-12-15T10:35:24;90005.25;;;-3.11;100.00
53300;BME280;39187;48.476;8.310;2022-12-15T10:38:02;90001.84;;;-2.68;100.00
53300;BME280;39187;48.476;8.310;2022-12-15T10:40:47;89996.47;;;-2.93;100.00
53300;BME280;39187;48.476;8.310;2022-12-15T10:45:47;90000.69;;;-2.77;100.00
53300;BME280;39187;48.476;8.310;2022-12-15T10:48:19;89984.00;;;-2.69;100.00
53300;BME280;39187;48.476;8.310;2022-12-15T10:50:44;89976.09;;;-2.80;100.00
53300;BME280;39187;48.476;8.310;2022-12-15T10:53:43;89977.75;;;-2.58;100.00
53300;BME280;39187;48.476;8.310;2022-12-15T10:56:50;89985.66;;;-2.98;100.00
53300;BME280;39187;48.476;8.310;2022-12-15T11:01:48;89999.00;;;-2.52;100.00
53300;BME280;39187;48.476;8.310;2022-12-15T11:04:29;89990.78;;;-2.54;100.00
53300;BME280;39187;48.476;8.310;2022-12-15T11:06:59;89981.75;;;-2.71;100.00
53300;BME280;39187;48.476;8.310;2022-12-15T11:09:36;89970.09;;;-2.88;100.00
53300;BME280;39187;48.476;8.310;2022-12-15T11:12:23;89964.53;;;-2.86;100.00
53300;BME280;39187;48.476;8.310;2022-12-15T11:18:17;89949.72;;;-2.82;100.00
53300;BME280;39187;48.476;8.310;2022-12-15T11:24:12;89949.75;;;-2.71;100.00
53300;BME280;39187;48.476;8.310;2022-12-15T11:29:37;89926.06;;;-2.52;100.00
53300;BME280;39187;48.476;8.310;2022-12-15T11:32:10;89918.78;;;-2.87;100.00
53300;BME280;39187;48.476;8.310;2022-12-15T11:34:41;89916.63;;;-2.78;100.00
53300;BME280;39187;48.476;8.310;2022-12-15T11:37:24;89906.91;;;-2.81;100.00
53300;BME280;39187;48.476;8.310;2022-12-15T11:42:59;89888.28;;;-2.87;100.00
53300;BME280;39187;48.476;8.310;2022-12-15T11:54:29;89887.03;;;-3.10;100.00
53300;BME280;39187;48.476;8.310;2022-12-15T12:00:11;89902.09;;;-2.79;100.00
53300;BME280;39187;48.476;8.310;2022-12-15T12:03:06;89902.69;;;-2.34;100.00
53300;BME280;39187;48.476;8.310;2022-12-15T12:05:56;89884.13;;;-2.26;100.00
53300;BME280;39187;48.476;8.310;2022-12-15T12:16:50;89875.16;;;-2.39;100.00
53300;BME280;39187;48.476;8.310;2022-12-15T12:19:28;89876.66;;;-2.38;100.00
53300;BME280;39187;48.476;8.310;2022-12-15T12:22:03;89881.56;;;-2.19;100.00
53300;BME280;39187;48.476;8.310;2022-12-15T12:24:44;89874.81;;;-2.27;100.00
53300;BME280;39187;48.476;8.310;2022-12-15T12:27:55;89866.28;;;-2.20;100.00
53300;BME280;39187;48.476;8.310;2022-12-15T12:30:24;89872.22;;;-2.16;100.00
53300;BME280;39187;48.476;8.310;2022-12-15T12:33:06;89872.88;;;-2.48;100.00
53300;BME280;39187;48.476;8.310;2022-12-15T12:35:39;89874.34;;;-2.54;100.00
53300;BME280;39187;48.476;8.310;2022-12-15T12:38:10;89864.91;;;-2.79;100.00
53300;BME280;39187;48.476;8.310;2022-12-15T12:43:08;89865.31;;;-2.74;100.00
53300;BME280;39187;48.476;8.310;2022-12-15T12:45:47;89858.66;;;-2.64;100.00
53300;BME280;39187;48.476;8.310;2022-12-15T12:48:33;89849.84;;;-2.35;100.00
53300;BME280;39187;48.476;8.310;2022-12-15T12:53:36;89848.16;;;-2.86;100.00
53300;BME280;39187;48.476;8.310;2022-12-15T12:56:02;89842.53;;;-2.91;100.00
53300;BME280;39187;48.476;8.310;2022-12-15T12:58:38;89840.72;;;-2.80;100.00
53300;BME280;39187;48.476;8.310;2022-12-15T13:01:30;89836.72;;;-2.63;100.00
53300;BME280;39187;48.476;8.310;2022-12-15T13:09:33;89814.19;;;-3.14;100.00
53300;BME280;39187;48.476;8.310;2022-12-15T13:12:01;89808.09;;;-2.63;100.00
53300;BME280;39187;48.476;8.310;2022-12-15T13:14:40;89800.84;;;-3.02;100.00
53300;BME280;39187;48.476;8.310;2022-12-15T13:22:33;89791.19;;;-3.01;100.00
53300;BME280;39187;48.476;8.310;2022-12-15T13:25:01;89783.34;;;-3.05;100.00
53300;BME280;39187;48.476;8.310;2022-12-15T13:27:36;89782.59;;;-3.05;100.00
53300;BME280;39187;48.476;8.310;2022-12-15T13:30:14;89781.94;;;-2.92;100.00
53300;BME280;39187;48.476;8.310;2022-12-15T13:32:44;89784.13;;;-2.94;100.00
53300;BME280;39187;48.476;8.310;2022-12-15T13:45:49;89780.53;;;-2.68;100.00
53300;BME280;39187;48.476;8.310;2022-12-15T13:48:26;89786.81;;;-2.79;100.00
53300;BME280;39187;48.476;8.310;2022-12-15T13:53:43;89788.63;;;-2.91;100.00
53300;BME280;39187;48.476;8.310;2022-12-15T13:58:45;89788.63;;;-2.87;100.00
53300;BME280;39187;48.476;8.310;2022-12-15T14:01:25;89792.59;;;-3.18;100.00
53300;BME280;39187;48.476;8.310;2022-12-15T14:06:36;89792.28;;;-3.06;100.00
53300;BME280;39187;48.476;8.310;2022-12-15T14:09:03;89791.50;;;-3.10;100.00
53300;BME280;39187;48.476;8.310;2022-12-15T14:11:32;89786.53;;;-3.36;100.00
53300;BME280;39187;48.476;8.310;2022-12-15T14:13:59;89798.13;;;-3.19;100.00
53300;BME280;39187;48.476;8.310;2022-12-15T14:16:26;89800.66;;;-3.37;100.00
53300;BME280;39187;48.476;8.310;2022-12-15T14:19:14;89793.19;;;-3.42;100.00
53300;BME280;39187;48.476;8.310;2022-12-15T14:21:53;89793.94;;;-3.38;100.00
53300;BME280;39187;48.476;8.310;2022-12-15T14:24:30;89783.94;;;-3.36;100.00
53300;BME280;39187;48.476;8.310;2022-12-15T14:26:58;89777.56;;;-3.46;100.00
53300;BME280;39187;48.476;8.310;2022-12-15T14:29:23;89781.28;;;-3.47;100.00
53300;BME280;39187;48.476;8.310;2022-12-15T14:31:53;89789.31;;;-3.66;100.00
53300;BME280;39187;48.476;8.310;2022-12-15T14:34:26;89787.28;;;-3.32;100.00
53300;BME280;39187;48.476;8.310;2022-12-15T14:36:55;89782.69;;;-3.56;100.00
53300;BME280;39187;48.476;8.310;2022-12-15T14:39:39;89769.69;;;-3.56;100.00
53300;BME280;39187;48.476;8.310;2022-12-15T14:42:07;89773.09;;;-3.45;100.00
53300;BME280;39187;48.476;8.310;2022-12-15T14:44:43;89778.75;;;-3.33;100.00
53300;BME280;39187;48.476;8.310;2022-12-15T14:47:31;89775.69;;;-3.52;100.00
53300;BME280;39187;48.476;8.310;2022-12-15T14:49:59;89783.84;;;-3.50;100.00
53300;BME280;39187;48.476;8.310;2022-12-15T14:52:39;89774.22;;;-3.46;100.00
53300;BME280;39187;48.476;8.310;2022-12-15T14:55:37;89774.38;;;-3.18;100.00
53300;BME280;39187;48.476;8.310;2022-12-15T14:58:33;89767.13;;;-3.53;100.00
53300;BME280;39187;48.476;8.310;2022-12-15T15:01:00;89764.50;;;-3.56;100.00
53300;BME280;39187;48.476;8.310;2022-12-15T15:03:36;89763.00;;;-3.57;100.00
53300;BME280;39187;48.476;8.310;2022-12-15T15:08:48;89754.44;;;-3.58;100.00
53300;BME280;39187;48.476;8.310;2022-12-15T15:11:20;89761.72;;;-3.23;100.00
53300;BME280;39187;48.476;8.310;2022-12-15T15:13:47;89773.28;;;-3.79;100.00
53300;BME280;39187;48.476;8.310;2022-12-15T15:16:17;89770.78;;;-3.57;100.00